sensor_id;sensor_type;location;lat;lon;timestamp;P1;durP1;ratioP1;P2;durP2;ratioP2
45522;SDS011;31254;51.680;5.394;2023-04-24T00:00:33;15.77;;;10.20;;
45522;SDS011;31254;51.680;5.394;2023-04-24T00:03:00;19.00;;;11.50;;
45522;SDS011;31254;51.680;5.394;2023-04-24T00:05:29;17.13;;;11.65;;
45522;SDS011;31254;51.680;5.394;2023-04-24T00:07:56;17.10;;;10.75;;
45522;SDS011;31254;51.680;5.394;2023-04-24T00:10:23;17.95;;;12.00;;
45522;SDS011;31254;51.680;5.394;2023-04-24T00:12:50;17.08;;;11.48;;
45522;SDS011;31254;51.680;5.394;2023-04-24T00:15:19;16.67;;;11.88;;
45522;SDS011;31254;51.680;5.394;2023-04-24T00:17:48;21.33;;;12.80;;
45522;SDS011;31254;51.680;5.394;2023-04-24T00:20:15;17.13;;;11.73;;
45522;SDS011;31254;51.680;5.394;2023-04-24T00:22:42;15.52;;;11.93;;
45522;SDS011;31254;51.680;5.394;2023-04-24T00:25:09;15.20;;;11.18;;
45522;SDS011;31254;51.680;5.394;2023-04-24T00:27:35;16.05;;;12.02;;
45522;SDS011;31254;51.680;5.394;2023-04-24T00:30:03;15.32;;;12.00;;
45522;SDS011;31254;51.680;5.394;2023-04-24T00:32:31;16.52;;;12.07;;
45522;SDS011;31254;51.680;5.394;2023-04-24T00:34:57;16.75;;;12.60;;
45522;SDS011;31254;51.680;5.394;2023-04-24T00:37:24;16.98;;;12.40;;
45522;SDS011;31254;51.680;5.394;2023-04-24T00:39:53;14.55;;;10.55;;
45522;SDS011;31254;51.680;5.394;2023-04-24T00:42:20;15.82;;;10.98;;
45522;SDS011;31254;51.680;5.394;2023-04-24T00:44:49;15.68;;;12.13;;
45522;SDS011;31254;51.680;5.394;2023-04-24T00:47:19;14.93;;;10.75;;
45522;SDS011;31254;51.680;5.394;2023-04-24T00:49:46;14.68;;;10.90;;
45522;SDS011;31254;51.680;5.394;2023-04-24T00:52:15;15.70;;;11.35;;
45522;SDS011;31254;51.680;5.394;2023-04-24T00:54:44;16.00;;;11.85;;
45522;SDS011;31254;51.680;5.394;2023-04-24T00:57:12;16.40;;;11.93;;
45522;SDS011;31254;51.680;5.394;2023-04-24T00:59:41;15.10;;;10.80;;
45522;SDS011;31254;51.680;5.394;2023-04-24T01:02:09;18.00;;;13.07;;
45522;SDS011;31254;51.680;5.394;2023-04-24T01:04:37;19.20;;;13.45;;
45522;SDS011;31254;51.680;5.394;2023-04-24T01:07:04;20.67;;;14.40;;
45522;SDS011;31254;51.680;5.394;2023-04-24T01:09:39;21.88;;;15.60;;
45522;SDS011;31254;51.680;5.394;2023-04-24T01:12:12;21.00;;;14.90;;
45522;SDS011;31254;51.680;5.394;2023-04-24T01:14:39;23.83;;;15.55;;
45522;SDS011;31254;51.680;5.394;2023-04-24T01:17:06;25.95;;;16.95;;
45522;SDS011;31254;51.680;5.394;2023-04-24T01:19:33;25.25;;;18.42;;
45522;SDS011;31254;51.680;5.394;2023-04-24T01:22:08;24.83;;;17.35;;
45522;SDS011;31254;51.680;5.394;2023-04-24T01:24:39;25.30;;;17.00;;
45522;SDS011;31254;51.680;5.394;2023-04-24T01:27:06;28.92;;;18.30;;
45522;SDS011;31254;51.680;5.394;2023-04-24T01:29:34;27.20;;;17.92;;
45522;SDS011;31254;51.680;5.394;2023-04-24T01:32:04;28.30;;;18.25;;
45522;SDS011;31254;51.680;5.394;2023-04-24T01:34:32;27.63;;;17.90;;
45522;SDS011;31254;51.680;5.394;2023-04-24T01:36:59;27.35;;;18.02;;
45522;SDS011;31254;51.680;5.394;2023-04-24T01:39:29;25.25;;;17.65;;
45522;SDS011;31254;51.680;5.394;2023-04-24T01:41:55;25.23;;;16.65;;
45522;SDS011;31254;51.680;5.394;2023-04-24T01:44:23;23.33;;;16.67;;
45522;SDS011;31254;51.680;5.394;2023-04-24T01:46:50;25.15;;;16.65;;
45522;SDS011;31254;51.680;5.394;2023-04-24T01:49:18;24.70;;;17.00;;
45522;SDS011;31254;51.680;5.394;2023-04-24T01:51:45;24.52;;;16.35;;
45522;SDS011;31254;51.680;5.394;2023-04-24T01:54:12;29.05;;;17.58;;
45522;SDS011;31254;51.680;5.394;2023-04-24T01:56:40;22.83;;;16.38;;
45522;SDS011;31254;51.680;5.394;2023-04-24T01:59:14;23.33;;;17.05;;
45522;SDS011;31254;51.680;5.394;2023-04-24T02:01:43;21.67;;;15.43;;
45522;SDS011;31254;51.680;5.394;2023-04-24T02:04:13;22.92;;;16.00;;
45522;SDS011;31254;51.680;5.394;2023-04-24T02:06:41;26.30;;;16.77;;
45522;SDS011;31254;51.680;5.394;2023-04-24T02:09:10;23.98;;;17.40;;
45522;SDS011;31254;51.680;5.394;2023-04-24T02:11:37;29.40;;;17.90;;
45522;SDS011;31254;51.680;5.394;2023-04-24T02:14:04;27.08;;;17.42;;
45522;SDS011;31254;51.680;5.394;2023-04-24T02:16:31;25.45;;;19.02;;
45522;SDS011;31254;51.680;5.394;2023-04-24T02:19:01;25.98;;;19.35;;
45522;SDS011;31254;51.680;5.394;2023-04-24T02:21:32;32.47;;;19.38;;
45522;SDS011;31254;51.680;5.394;2023-04-24T02:23:59;27.88;;;19.88;;
45522;SDS011;31254;51.680;5.394;2023-04-24T02:26:28;30.58;;;20.75;;
45522;SDS011;31254;51.680;5.394;2023-04-24T02:28:58;34.28;;;20.40;;
45522;SDS011;31254;51.680;5.394;2023-04-24T02:31:26;36.67;;;22.30;;
45522;SDS011;31254;51.680;5.394;2023-04-24T02:33:53;32.90;;;20.90;;
45522;SDS011;31254;51.680;5.394;2023-04-24T02:36:26;34.78;;;22.10;;
45522;SDS011;31254;51.680;5.394;2023-04-24T02:39:07;34.63;;;21.80;;
45522;SDS011;31254;51.680;5.394;2023-04-24T02:41:43;30.23;;;20.75;;
45522;SDS011;31254;51.680;5.394;2023-04-24T02:44:12;35.70;;;22.27;;
45522;SDS011;31254;51.680;5.394;2023-04-24T02:46:39;36.47;;;21.65;;
45522;SDS011;31254;51.680;5.394;2023-04-24T02:49:08;33.40;;;19.70;;
45522;SDS011;31254;51.680;5.394;2023-04-24T02:51:38;27.38;;;19.38;;
45522;SDS011;31254;51.680;5.394;2023-04-24T02:54:07;26.73;;;18.45;;
45522;SDS011;31254;51.680;5.394;2023-04-24T02:56:38;28.27;;;19.17;;
45522;SDS011;31254;51.680;5.394;2023-04-24T02:59:05;28.52;;;19.08;;
45522;SDS011;31254;51.680;5.394;2023-04-24T03:01:35;29.00;;;18.02;;
45522;SDS011;31254;51.680;5.394;2023-04-24T03:04:02;27.85;;;19.15;;
45522;SDS011;31254;51.680;5.394;2023-04-24T03:06:38;28.98;;;18.20;;
45522;SDS011;31254;51.680;5.394;2023-04-24T03:09:06;26.48;;;16.73;;
45522;SDS011;31254;51.680;5.394;2023-04-24T03:11:33;25.02;;;16.95;;
45522;SDS011;31254;51.680;5.394;2023-04-24T03:14:00;29.67;;;16.67;;
45522;SDS011;31254;51.680;5.394;2023-04-24T03:16:30;24.15;;;16.67;;
45522;SDS011;31254;51.680;5.394;2023-04-24T03:18:57;26.88;;;17.02;;
45522;SDS011;31254;51.680;5.394;2023-04-24T03:21:29;26.40;;;16.60;;
45522;SDS011;31254;51.680;5.394;2023-04-24T03:23:57;27.30;;;16.98;;
45522;SDS011;31254;51.680;5.394;2023-04-24T03:26:25;25.67;;;17.75;;
45522;SDS011;31254;51.680;5.394;2023-04-24T03:28:53;23.30;;;16.40;;
45522;SDS011;31254;51.680;5.394;2023-04-24T03:31:21;23.80;;;17.13;;
45522;SDS011;31254;51.680;5.394;2023-04-24T03:33:50;28.80;;;17.63;;
45522;SDS011;31254;51.680;5.394;2023-04-24T03:36:21;26.55;;;17.05;;
45522;SDS011;31254;51.680;5.394;2023-04-24T03:38:49;26.42;;;17.80;;
45522;SDS011;31254;51.680;5.394;2023-04-24T03:41:16;29.77;;;17.25;;
45522;SDS011;31254;51.680;5.394;2023-04-24T03:43:45;27.25;;;16.90;;
45522;SDS011;31254;51.680;5.394;2023-04-24T03:46:13;23.88;;;16.55;;
45522;SDS011;31254;51.680;5.394;2023-04-24T03:48:40;24.35;;;16.30;;
45522;SDS011;31254;51.680;5.394;2023-04-24T03:51:10;26.77;;;17.45;;
45522;SDS011;31254;51.680;5.394;2023-04-24T03:53:37;28.38;;;16.77;;
45522;SDS011;31254;51.680;5.394;2023-04-24T03:56:04;24.13;;;16.00;;
45522;SDS011;31254;51.680;5.394;2023-04-24T03:58:31;22.08;;;15.30;;
45522;SDS011;31254;51.680;5.394;2023-04-24T04:00:59;25.02;;;16.27;;
45522;SDS011;31254;51.680;5.394;2023-04-24T04:03:29;29.33;;;16.50;;
45522;SDS011;31254;51.680;5.394;2023-04-24T04:05:57;24.10;;;17.45;;
45522;SDS011;31254;51.680;5.394;2023-04-24T04:08:24;23.30;;;16.00;;
45522;SDS011;31254;51.680;5.394;2023-04-24T04:10:51;23.13;;;15.82;;
45522;SDS011;31254;51.680;5.394;2023-04-24T04:13:18;25.00;;;15.65;;
45522;SDS011;31254;51.680;5.394;2023-04-24T04:15:45;20.30;;;14.48;;
45522;SDS011;31254;51.680;5.394;2023-04-24T04:18:14;22.65;;;16.35;;
45522;SDS011;31254;51.680;5.394;2023-04-24T04:20:46;21.17;;;15.20;;
45522;SDS011;31254;51.680;5.394;2023-04-24T04:23:14;21.75;;;14.90;;
45522;SDS011;31254;51.680;5.394;2023-04-24T04:25:45;21.35;;;14.45;;
45522;SDS011;31254;51.680;5.394;2023-04-24T04:28:13;21.05;;;14.40;;
45522;SDS011;31254;51.680;5.394;2023-04-24T04:30:41;21.48;;;13.77;;
45522;SDS011;31254;51.680;5.394;2023-04-24T04:33:09;21.23;;;14.07;;
45522;SDS011;31254;51.680;5.394;2023-04-24T04:35:37;19.08;;;13.23;;
45522;SDS011;31254;51.680;5.394;2023-04-24T04:38:07;20.40;;;13.73;;
45522;SDS011;31254;51.680;5.394;2023-04-24T04:40:35;21.60;;;14.10;;
45522;SDS011;31254;51.680;5.394;2023-04-24T04:43:06;20.70;;;13.27;;
45522;SDS011;31254;51.680;5.394;2023-04-24T04:45:33;17.98;;;10.85;;
45522;SDS011;31254;51.680;5.394;2023-04-24T04:48:03;20.02;;;11.23;;
45522;SDS011;31254;51.680;5.394;2023-04-24T04:50:30;16.65;;;10.82;;
45522;SDS011;31254;51.680;5.394;2023-04-24T04:52:57;17.30;;;11.02;;
45522;SDS011;31254;51.680;5.394;2023-04-24T04:55:26;18.17;;;11.10;;
45522;SDS011;31254;51.680;5.394;2023-04-24T04:57:53;17.13;;;10.25;;
45522;SDS011;31254;51.680;5.394;2023-04-24T05:00:23;13.82;;;8.57;;
45522;SDS011;31254;51.680;5.394;2023-04-24T05:02:53;12.77;;;8.57;;
45522;SDS011;31254;51.680;5.394;2023-04-24T05:05:26;12.40;;;7.30;;
45522;SDS011;31254;51.680;5.394;2023-04-24T05:07:55;10.32;;;5.95;;
45522;SDS011;31254;51.680;5.394;2023-04-24T05:10:22;9.93;;;5.82;;
45522;SDS011;31254;51.680;5.394;2023-04-24T05:12:49;8.77;;;5.85;;
45522;SDS011;31254;51.680;5.394;2023-04-24T05:15:26;9.75;;;6.25;;
45522;SDS011;31254;51.680;5.394;2023-04-24T05:17:53;12.85;;;6.70;;
45522;SDS011;31254;51.680;5.394;2023-04-24T05:20:23;11.90;;;6.82;;
45522;SDS011;31254;51.680;5.394;2023-04-24T05:22:50;10.18;;;7.00;;
45522;SDS011;31254;51.680;5.394;2023-04-24T05:25:16;11.70;;;7.30;;
45522;SDS011;31254;51.680;5.394;2023-04-24T05:27:46;11.02;;;6.82;;
45522;SDS011;31254;51.680;5.394;2023-04-24T05:30:13;11.10;;;6.97;;
45522;SDS011;31254;51.680;5.394;2023-04-24T05:32:42;10.85;;;6.40;;
45522;SDS011;31254;51.680;5.394;2023-04-24T05:35:09;4.60;;;2.63;;
45522;SDS011;31254;51.680;5.394;2023-04-24T05:37:50;3.90;;;1.00;;
45522;SDS011;31254;51.680;5.394;2023-04-24T05:40:17;1.48;;;0.90;;
45522;SDS011;31254;51.680;5.394;2023-04-24T05:42:45;1.85;;;1.10;;
45522;SDS011;31254;51.680;5.394;2023-04-24T05:45:17;1.25;;;0.90;;
45522;SDS011;31254;51.680;5.394;2023-04-24T05:47:47;1.92;;;1.10;;
45522;SDS011;31254;51.680;5.394;2023-04-24T05:50:18;1.48;;;0.90;;
45522;SDS011;31254;51.680;5.394;2023-04-24T05:52:45;1.98;;;0.85;;
45522;SDS011;31254;51.680;5.394;2023-04-24T05:55:13;4.00;;;1.20;;
45522;SDS011;31254;51.680;5.394;2023-04-24T05:57:42;2.33;;;1.27;;
45522;SDS011;31254;51.680;5.394;2023-04-24T06:00:12;1.98;;;1.13;;
45522;SDS011;31254;51.680;5.394;2023-04-24T06:02:41;1.92;;;1.15;;
45522;SDS011;31254;51.680;5.394;2023-04-24T06:05:08;4.57;;;1.20;;
45522;SDS011;31254;51.680;5.394;2023-04-24T06:07:36;2.33;;;1.10;;
45522;SDS011;31254;51.680;5.394;2023-04-24T06:10:03;1.77;;;0.82;;
45522;SDS011;31254;51.680;5.394;2023-04-24T06:12:31;1.83;;;1.00;;
45522;SDS011;31254;51.680;5.394;2023-04-24T06:14:59;2.08;;;1.08;;
45522;SDS011;31254;51.680;5.394;2023-04-24T06:17:26;1.02;;;0.70;;
45522;SDS011;31254;51.680;5.394;2023-04-24T06:19:54;1.52;;;0.77;;
45522;SDS011;31254;51.680;5.394;2023-04-24T06:22:26;3.58;;;0.90;;
45522;SDS011;31254;51.680;5.394;2023-04-24T06:24:54;1.58;;;0.85;;
45522;SDS011;31254;51.680;5.394;2023-04-24T06:27:22;1.65;;;1.00;;
45522;SDS011;31254;51.680;5.394;2023-04-24T06:29:49;3.33;;;1.30;;
45522;SDS011;31254;51.680;5.394;2023-04-24T06:32:27;4.03;;;1.73;;
45522;SDS011;31254;51.680;5.394;2023-04-24T06:34:55;2.70;;;1.40;;
45522;SDS011;31254;51.680;5.394;2023-04-24T06:37:24;3.25;;;2.45;;
45522;SDS011;31254;51.680;5.394;2023-04-24T06:39:55;4.32;;;2.70;;
45522;SDS011;31254;51.680;5.394;2023-04-24T06:42:25;4.65;;;2.78;;
45522;SDS011;31254;51.680;5.394;2023-04-24T06:44:55;4.57;;;3.40;;
45522;SDS011;31254;51.680;5.394;2023-04-24T06:47:22;3.38;;;2.15;;
45522;SDS011;31254;51.680;5.394;2023-04-24T06:49:50;8.57;;;3.22;;
45522;SDS011;31254;51.680;5.394;2023-04-24T06:52:26;4.75;;;3.38;;
45522;SDS011;31254;51.680;5.394;2023-04-24T06:59:04;7.70;;;4.22;;
45522;SDS011;31254;51.680;5.394;2023-04-24T07:01:35;11.07;;;6.50;;
45522;SDS011;31254;51.680;5.394;2023-04-24T07:04:19;9.27;;;5.40;;
45522;SDS011;31254;51.680;5.394;2023-04-24T07:06:47;15.63;;;6.22;;
45522;SDS011;31254;51.680;5.394;2023-04-24T07:09:15;14.60;;;6.30;;
45522;SDS011;31254;51.680;5.394;2023-04-24T07:11:45;13.63;;;7.15;;
45522;SDS011;31254;51.680;5.394;2023-04-24T07:14:16;18.25;;;8.32;;
45522;SDS011;31254;51.680;5.394;2023-04-24T07:17:04;15.93;;;7.90;;
45522;SDS011;31254;51.680;5.394;2023-04-24T07:19:46;16.67;;;7.18;;
45522;SDS011;31254;51.680;5.394;2023-04-24T07:22:15;15.55;;;8.18;;
45522;SDS011;31254;51.680;5.394;2023-04-24T07:24:48;20.17;;;7.65;;
45522;SDS011;31254;51.680;5.394;2023-04-24T07:27:17;13.60;;;6.90;;
45522;SDS011;31254;51.680;5.394;2023-04-24T07:29:47;19.58;;;8.45;;
45522;SDS011;31254;51.680;5.394;2023-04-24T07:32:17;16.10;;;8.40;;
45522;SDS011;31254;51.680;5.394;2023-04-24T07:34:44;16.40;;;7.55;;
45522;SDS011;31254;51.680;5.394;2023-04-24T07:37:11;16.02;;;7.88;;
45522;SDS011;31254;51.680;5.394;2023-04-24T07:39:38;11.75;;;7.45;;
45522;SDS011;31254;51.680;5.394;2023-04-24T07:42:05;15.82;;;8.32;;
45522;SDS011;31254;51.680;5.394;2023-04-24T07:44:32;12.52;;;7.20;;
45522;SDS011;31254;51.680;5.394;2023-04-24T07:46:59;14.60;;;6.57;;
45522;SDS011;31254;51.680;5.394;2023-04-24T07:49:28;16.35;;;6.25;;
45522;SDS011;31254;51.680;5.394;2023-04-24T07:51:55;13.10;;;5.45;;
45522;SDS011;31254;51.680;5.394;2023-04-24T07:54:22;12.23;;;5.72;;
45522;SDS011;31254;51.680;5.394;2023-04-24T07:56:49;12.27;;;5.32;;
45522;SDS011;31254;51.680;5.394;2023-04-24T07:59:16;19.23;;;5.30;;
45522;SDS011;31254;51.680;5.394;2023-04-24T08:01:43;18.77;;;5.18;;
45522;SDS011;31254;51.680;5.394;2023-04-24T08:04:10;18.88;;;5.07;;
45522;SDS011;31254;51.680;5.394;2023-04-24T08:06:37;16.95;;;5.20;;
45522;SDS011;31254;51.680;5.394;2023-04-24T08:09:04;12.90;;;3.83;;
45522;SDS011;31254;51.680;5.394;2023-04-24T08:11:31;12.43;;;4.18;;
45522;SDS011;31254;51.680;5.394;2023-04-24T08:13:59;13.13;;;4.72;;
45522;SDS011;31254;51.680;5.394;2023-04-24T08:16:26;15.85;;;4.70;;
45522;SDS011;31254;51.680;5.394;2023-04-24T08:18:53;13.40;;;3.47;;
45522;SDS011;31254;51.680;5.394;2023-04-24T08:21:19;9.30;;;3.85;;
45522;SDS011;31254;51.680;5.394;2023-04-24T08:23:46;14.85;;;4.80;;
45522;SDS011;31254;51.680;5.394;2023-04-24T08:26:13;16.23;;;3.92;;
45522;SDS011;31254;51.680;5.394;2023-04-24T08:28:43;14.75;;;3.42;;
45522;SDS011;31254;51.680;5.394;2023-04-24T08:31:09;12.07;;;3.60;;
45522;SDS011;31254;51.680;5.394;2023-04-24T08:33:38;13.48;;;3.25;;
45522;SDS011;31254;51.680;5.394;2023-04-24T08:36:07;14.25;;;3.25;;
45522;SDS011;31254;51.680;5.394;2023-04-24T08:38:36;7.00;;;2.28;;
45522;SDS011;31254;51.680;5.394;2023-04-24T08:41:08;12.90;;;3.70;;
45522;SDS011;31254;51.680;5.394;2023-04-24T08:43:39;15.68;;;3.47;;
45522;SDS011;31254;51.680;5.394;2023-04-24T08:46:06;8.55;;;2.60;;
45522;SDS011;31254;51.680;5.394;2023-04-24T08:48:37;13.50;;;2.88;;
45522;SDS011;31254;51.680;5.394;2023-04-24T08:51:06;14.73;;;3.28;;
45522;SDS011;31254;51.680;5.394;2023-04-24T08:53:36;11.55;;;2.95;;
45522;SDS011;31254;51.680;5.394;2023-04-24T08:56:03;12.00;;;2.95;;
45522;SDS011;31254;51.680;5.394;2023-04-24T08:58:35;13.52;;;2.80;;
45522;SDS011;31254;51.680;5.394;2023-04-24T09:01:02;15.70;;;3.35;;
45522;SDS011;31254;51.680;5.394;2023-04-24T09:03:29;15.05;;;3.13;;
45522;SDS011;31254;51.680;5.394;2023-04-24T09:05:57;18.92;;;2.67;;
45522;SDS011;31254;51.680;5.394;2023-04-24T09:08:25;7.95;;;2.60;;
45522;SDS011;31254;51.680;5.394;2023-04-24T09:10:56;9.82;;;2.90;;
45522;SDS011;31254;51.680;5.394;2023-04-24T09:13:24;8.07;;;1.92;;
45522;SDS011;31254;51.680;5.394;2023-04-24T09:15:51;15.55;;;2.72;;
45522;SDS011;31254;51.680;5.394;2023-04-24T09:18:18;11.73;;;2.92;;
45522;SDS011;31254;51.680;5.394;2023-04-24T09:23:25;14.68;;;2.38;;
45522;SDS011;31254;51.680;5.394;2023-04-24T09:25:59;10.27;;;2.35;;
45522;SDS011;31254;51.680;5.394;2023-04-24T09:28:35;10.88;;;2.08;;
45522;SDS011;31254;51.680;5.394;2023-04-24T09:31:04;17.38;;;2.75;;
45522;SDS011;31254;51.680;5.394;2023-04-24T09:33:36;10.43;;;2.38;;
45522;SDS011;31254;51.680;5.394;2023-04-24T09:36:03;10.75;;;2.00;;
45522;SDS011;31254;51.680;5.394;2023-04-24T09:38:33;9.27;;;1.75;;
45522;SDS011;31254;51.680;5.394;2023-04-24T09:41:07;8.07;;;1.88;;
45522;SDS011;31254;51.680;5.394;2023-04-24T09:43:35;8.68;;;2.42;;
45522;SDS011;31254;51.680;5.394;2023-04-24T09:46:08;8.18;;;2.22;;
45522;SDS011;31254;51.680;5.394;2023-04-24T09:48:36;10.82;;;2.20;;
45522;SDS011;31254;51.680;5.394;2023-04-24T09:51:04;8.68;;;2.05;;
45522;SDS011;31254;51.680;5.394;2023-04-24T09:53:38;6.13;;;1.88;;
45522;SDS011;31254;51.680;5.394;2023-04-24T09:56:08;5.00;;;1.52;;
45522;SDS011;31254;51.680;5.394;2023-04-24T09:58:39;7.07;;;2.10;;
45522;SDS011;31254;51.680;5.394;2023-04-24T10:01:06;10.93;;;1.73;;
45522;SDS011;31254;51.680;5.394;2023-04-24T10:03:35;5.53;;;1.90;;
45522;SDS011;31254;51.680;5.394;2023-04-24T10:06:04;8.00;;;1.67;;
45522;SDS011;31254;51.680;5.394;2023-04-24T10:08:37;7.68;;;2.33;;
45522;SDS011;31254;51.680;5.394;2023-04-24T10:11:07;5.63;;;1.80;;
45522;SDS011;31254;51.680;5.394;2023-04-24T10:13:37;13.27;;;2.58;;
45522;SDS011;31254;51.680;5.394;2023-04-24T10:16:06;11.93;;;1.70;;
45522;SDS011;31254;51.680;5.394;2023-04-24T10:18:33;10.57;;;1.88;;
45522;SDS011;31254;51.680;5.394;2023-04-24T10:21:00;8.77;;;1.73;;
45522;SDS011;31254;51.680;5.394;2023-04-24T10:23:30;6.13;;;1.85;;
45522;SDS011;31254;51.680;5.394;2023-04-24T10:25:57;6.38;;;2.05;;
45522;SDS011;31254;51.680;5.394;2023-04-24T10:28:25;5.40;;;1.35;;
45522;SDS011;31254;51.680;5.394;2023-04-24T10:30:57;5.07;;;1.40;;
45522;SDS011;31254;51.680;5.394;2023-04-24T10:33:27;7.50;;;1.40;;
45522;SDS011;31254;51.680;5.394;2023-04-24T10:35:55;7.05;;;1.15;;
45522;SDS011;31254;51.680;5.394;2023-04-24T10:38:25;3.80;;;1.30;;
45522;SDS011;31254;51.680;5.394;2023-04-24T10:41:06;5.20;;;1.25;;
45522;SDS011;31254;51.680;5.394;2023-04-24T10:43:35;3.15;;;1.15;;
45522;SDS011;31254;51.680;5.394;2023-04-24T10:46:05;2.65;;;0.80;;
45522;SDS011;31254;51.680;5.394;2023-04-24T10:48:32;2.90;;;0.90;;
45522;SDS011;31254;51.680;5.394;2023-04-24T10:51:02;2.80;;;1.08;;
45522;SDS011;31254;51.680;5.394;2023-04-24T10:53:29;6.03;;;1.05;;
45522;SDS011;31254;51.680;5.394;2023-04-24T10:56:06;2.55;;;0.68;;
45522;SDS011;31254;51.680;5.394;2023-04-24T10:58:38;1.65;;;0.60;;
45522;SDS011;31254;51.680;5.394;2023-04-24T11:01:10;7.07;;;0.80;;
45522;SDS011;31254;51.680;5.394;2023-04-24T11:03:59;5.70;;;0.90;;
45522;SDS011;31254;51.680;5.394;2023-04-24T11:06:34;1.70;;;0.70;;
45522;SDS011;31254;51.680;5.394;2023-04-24T11:09:03;2.95;;;0.60;;
45522;SDS011;31254;51.680;5.394;2023-04-24T11:11:31;1.42;;;0.80;;
45522;SDS011;31254;51.680;5.394;2023-04-24T11:16:26;2.58;;;0.80;;
45522;SDS011;31254;51.680;5.394;2023-04-24T11:19:05;3.38;;;0.80;;
45522;SDS011;31254;51.680;5.394;2023-04-24T11:27:07;4.47;;;0.60;;
45522;SDS011;31254;51.680;5.394;2023-04-24T11:29:45;1.67;;;0.47;;
45522;SDS011;31254;51.680;5.394;2023-04-24T11:32:34;4.18;;;0.80;;
45522;SDS011;31254;51.680;5.394;2023-04-24T11:35:08;2.28;;;0.70;;
45522;SDS011;31254;51.680;5.394;2023-04-24T11:37:41;4.05;;;0.80;;
45522;SDS011;31254;51.680;5.394;2023-04-24T11:40:19;3.03;;;1.05;;
45522;SDS011;31254;51.680;5.394;2023-04-24T11:42:47;5.30;;;1.10;;
45522;SDS011;31254;51.680;5.394;2023-04-24T11:45:18;4.63;;;1.08;;
45522;SDS011;31254;51.680;5.394;2023-04-24T11:47:48;5.13;;;0.90;;
45522;SDS011;31254;51.680;5.394;2023-04-24T11:50:16;5.80;;;1.58;;
45522;SDS011;31254;51.680;5.394;2023-04-24T11:52:45;6.65;;;0.95;;
45522;SDS011;31254;51.680;5.394;2023-04-24T11:57:43;4.75;;;1.00;;
45522;SDS011;31254;51.680;5.394;2023-04-24T12:00:30;5.22;;;1.33;;
45522;SDS011;31254;51.680;5.394;2023-04-24T12:03:06;5.45;;;1.30;;
45522;SDS011;31254;51.680;5.394;2023-04-24T12:05:34;4.30;;;1.00;;
45522;SDS011;31254;51.680;5.394;2023-04-24T12:08:01;3.88;;;1.20;;
45522;SDS011;31254;51.680;5.394;2023-04-24T12:10:29;11.27;;;1.17;;
45522;SDS011;31254;51.680;5.394;2023-04-24T12:12:59;10.63;;;1.17;;
45522;SDS011;31254;51.680;5.394;2023-04-24T12:15:26;8.38;;;1.90;;
45522;SDS011;31254;51.680;5.394;2023-04-24T12:17:55;10.57;;;1.65;;
45522;SDS011;31254;51.680;5.394;2023-04-24T12:20:29;6.75;;;0.80;;
45522;SDS011;31254;51.680;5.394;2023-04-24T12:22:57;7.45;;;0.90;;
45522;SDS011;31254;51.680;5.394;2023-04-24T12:25:29;5.80;;;1.27;;
45522;SDS011;31254;51.680;5.394;2023-04-24T12:30:32;7.45;;;1.00;;
45522;SDS011;31254;51.680;5.394;2023-04-24T12:33:02;5.47;;;1.17;;
45522;SDS011;31254;51.680;5.394;2023-04-24T12:35:31;4.43;;;1.13;;
45522;SDS011;31254;51.680;5.394;2023-04-24T12:38:11;6.97;;;1.10;;
45522;SDS011;31254;51.680;5.394;2023-04-24T12:40:43;5.05;;;1.20;;
45522;SDS011;31254;51.680;5.394;2023-04-24T12:43:14;7.25;;;1.08;;
45522;SDS011;31254;51.680;5.394;2023-04-24T12:45:48;2.63;;;1.13;;
45522;SDS011;31254;51.680;5.394;2023-04-24T12:48:15;3.00;;;1.05;;
45522;SDS011;31254;51.680;5.394;2023-04-24T12:50:43;3.63;;;1.00;;
45522;SDS011;31254;51.680;5.394;2023-04-24T12:53:12;4.70;;;1.25;;
45522;SDS011;31254;51.680;5.394;2023-04-24T12:55:39;9.68;;;1.42;;
45522;SDS011;31254;51.680;5.394;2023-04-24T12:58:06;2.05;;;0.90;;
45522;SDS011;31254;51.680;5.394;2023-04-24T13:00:35;4.82;;;1.20;;
45522;SDS011;31254;51.680;5.394;2023-04-24T13:03:02;5.78;;;1.27;;
45522;SDS011;31254;51.680;5.394;2023-04-24T13:05:32;8.48;;;1.35;;
45522;SDS011;31254;51.680;5.394;2023-04-24T13:08:01;2.67;;;1.10;;
45522;SDS011;31254;51.680;5.394;2023-04-24T13:10:27;6.07;;;1.08;;
45522;SDS011;31254;51.680;5.394;2023-04-24T13:12:57;4.10;;;1.10;;
45522;SDS011;31254;51.680;5.394;2023-04-24T13:15:23;5.43;;;1.23;;
45522;SDS011;31254;51.680;5.394;2023-04-24T13:17:53;2.40;;;1.20;;
45522;SDS011;31254;51.680;5.394;2023-04-24T13:20:20;3.88;;;1.05;;
45522;SDS011;31254;51.680;5.394;2023-04-24T13:22:49;5.57;;;1.30;;
45522;SDS011;31254;51.680;5.394;2023-04-24T13:25:16;3.95;;;1.40;;
45522;SDS011;31254;51.680;5.394;2023-04-24T13:27:43;6.25;;;1.20;;
45522;SDS011;31254;51.680;5.394;2023-04-24T13:30:10;3.65;;;1.15;;
45522;SDS011;31254;51.680;5.394;2023-04-24T13:32:40;5.70;;;1.10;;
45522;SDS011;31254;51.680;5.394;2023-04-24T13:35:07;3.92;;;1.30;;
45522;SDS011;31254;51.680;5.394;2023-04-24T13:37:34;4.22;;;1.38;;
45522;SDS011;31254;51.680;5.394;2023-04-24T13:40:03;7.15;;;1.30;;
45522;SDS011;31254;51.680;5.394;2023-04-24T13:42:32;3.95;;;0.98;;
45522;SDS011;31254;51.680;5.394;2023-04-24T13:45:01;5.00;;;0.80;;
45522;SDS011;31254;51.680;5.394;2023-04-24T13:47:49;3.20;;;0.80;;
45522;SDS011;31254;51.680;5.394;2023-04-24T13:50:17;3.70;;;0.80;;
45522;SDS011;31254;51.680;5.394;2023-04-24T13:52:44;3.10;;;1.08;;
45522;SDS011;31254;51.680;5.394;2023-04-24T13:55:11;2.97;;;0.60;;
45522;SDS011;31254;51.680;5.394;2023-04-24T13:57:40;1.30;;;0.50;;
45522;SDS011;31254;51.680;5.394;2023-04-24T14:00:07;4.07;;;0.90;;
45522;SDS011;31254;51.680;5.394;2023-04-24T14:02:37;3.78;;;0.80;;
45522;SDS011;31254;51.680;5.394;2023-04-24T14:05:04;2.35;;;0.90;;
45522;SDS011;31254;51.680;5.394;2023-04-24T14:07:33;3.85;;;0.93;;
45522;SDS011;31254;51.680;5.394;2023-04-24T14:10:00;4.15;;;1.27;;
45522;SDS011;31254;51.680;5.394;2023-04-24T14:12:29;7.25;;;1.30;;
45522;SDS011;31254;51.680;5.394;2023-04-24T14:14:58;4.90;;;1.23;;
45522;SDS011;31254;51.680;5.394;2023-04-24T14:17:25;5.30;;;1.30;;
45522;SDS011;31254;51.680;5.394;2023-04-24T14:19:52;6.78;;;1.50;;
45522;SDS011;31254;51.680;5.394;2023-04-24T14:22:23;5.25;;;1.77;;
45522;SDS011;31254;51.680;5.394;2023-04-24T14:24:51;6.25;;;1.90;;
45522;SDS011;31254;51.680;5.394;2023-04-24T14:27:18;5.78;;;2.00;;
45522;SDS011;31254;51.680;5.394;2023-04-24T14:29:47;7.10;;;2.10;;
45522;SDS011;31254;51.680;5.394;2023-04-24T14:32:15;8.85;;;2.05;;
45522;SDS011;31254;51.680;5.394;2023-04-24T14:34:43;7.07;;;2.03;;
45522;SDS011;31254;51.680;5.394;2023-04-24T14:37:13;8.88;;;1.65;;
45522;SDS011;31254;51.680;5.394;2023-04-24T14:39:41;10.30;;;2.03;;
45522;SDS011;31254;51.680;5.394;2023-04-24T14:42:15;8.18;;;1.77;;
45522;SDS011;31254;51.680;5.394;2023-04-24T14:44:44;5.40;;;1.45;;
45522;SDS011;31254;51.680;5.394;2023-04-24T14:47:12;9.80;;;1.77;;
45522;SDS011;31254;51.680;5.394;2023-04-24T14:49:40;5.03;;;1.35;;
45522;SDS011;31254;51.680;5.394;2023-04-24T14:52:07;9.82;;;2.13;;
45522;SDS011;31254;51.680;5.394;2023-04-24T14:54:35;6.90;;;1.50;;
45522;SDS011;31254;51.680;5.394;2023-04-24T14:57:03;5.78;;;1.52;;
45522;SDS011;31254;51.680;5.394;2023-04-24T14:59:31;3.10;;;1.50;;
45522;SDS011;31254;51.680;5.394;2023-04-24T15:01:59;7.75;;;1.88;;
45522;SDS011;31254;51.680;5.394;2023-04-24T15:04:42;6.15;;;1.60;;
45522;SDS011;31254;51.680;5.394;2023-04-24T15:07:13;6.43;;;1.75;;